createdAt,value
2018-12-01T00:01:54.774Z,96762.36
2018-12-01T00:04:21.979Z,96762.09
2018-12-01T00:06:49.147Z,96762.60
2018-12-01T00:09:16.341Z,96765.94
2018-12-01T00:11:43.552Z,96765.23
2018-12-01T00:14:10.733Z,96769.36
2018-12-01T00:16:37.940Z,96776.13
2018-12-01T00:19:05.106Z,96774.84
2018-12-01T00:21:32.297Z,96770.15
2018-12-01T00:23:59.457Z,96774.82
2018-12-01T00:26:26.675Z,96774.82
2018-12-01T00:28:53.843Z,96779.53
2018-12-01T00:31:20.986Z,96771.83
2018-12-01T00:33:48.209Z,96777.34
2018-12-01T00:36:15.358Z,96774.30
2018-12-01T00:38:42.613Z,96773.50
2018-12-01T00:41:09.838Z,96777.36
2018-12-01T00:43:37.211Z,96781.44
2018-12-01T00:46:05.910Z,96782.74
2018-12-01T00:48:33.398Z,96783.58
2018-12-01T00:51:00.905Z,96777.87
2018-12-01T00:53:28.402Z,96777.34
2018-12-01T00:55:55.549Z,96780.92
2018-12-01T00:58:23.211Z,96783.50
2018-12-01T01:00:50.401Z,96782.03
2018-12-01T01:03:17.642Z,96778.97
2018-12-01T01:05:44.789Z,96773.25
2018-12-01T01:08:11.985Z,96765.96
2018-12-01T01:10:39.195Z,96761.23
2018-12-01T01:13:06.438Z,96766.89
2018-12-01T01:15:33.612Z,96668.42
2018-12-01T01:18:00.818Z,96770.51
2018-12-01T01:20:28.050Z,96769.27
2018-12-01T01:22:55.250Z,96770.90
2018-12-01T01:25:22.434Z,96772.98
2018-12-01T01:27:49.724Z,96769.55
2018-12-01T01:30:18.943Z,96771.05
2018-12-01T01:32:46.298Z,96777.87
2018-12-01T01:35:13.511Z,96770.27
2018-12-01T01:37:40.713Z,96769.19
2018-12-01T01:40:09.526Z,96772.09
2018-12-01T01:42:36.679Z,96769.03
2018-12-01T01:45:06.630Z,96778.06
2018-12-01T01:47:33.801Z,96775.44
2018-12-01T01:50:00.999Z,96771.49
2018-12-01T01:52:28.177Z,96783.23
2018-12-01T01:54:55.387Z,96781.36
2018-12-01T01:57:22.628Z,96781.59
2018-12-01T01:59:49.808Z,96781.55
2018-12-01T02:02:17.067Z,96778.41
2018-12-01T02:04:44.319Z,96769.56
2018-12-01T02:07:11.516Z,96778.72
2018-12-01T02:09:38.690Z,96765.48
2018-12-01T02:12:05.899Z,96773.56
2018-12-01T02:14:33.062Z,96775.64
2018-12-01T02:17:00.251Z,96775.11
2018-12-01T02:19:27.426Z,96771.47
2018-12-01T02:21:54.584Z,96762.63
2018-12-01T02:24:21.779Z,96766.27
2018-12-01T02:26:49.040Z,96766.27
2018-12-01T02:29:16.195Z,96778.22
2018-12-01T02:31:43.402Z,96784.19
2018-12-01T02:34:10.604Z,96787.57
2018-12-01T02:36:37.785Z,96783.66
2018-12-01T02:39:08.229Z,96794.34
2018-12-01T02:41:35.418Z,96795.66
2018-12-01T02:44:13.804Z,96782.39
2018-12-01T02:47:05.650Z,96787.09
2018-12-01T02:49:32.798Z,96784.48
2018-12-01T02:51:59.931Z,96786.05
2018-12-01T02:54:27.170Z,96761.25
2018-12-01T02:56:54.391Z,96787.09
2018-12-01T02:59:21.538Z,96786.82
2018-12-01T03:01:48.752Z,96786.57
2018-12-01T03:04:15.974Z,96780.85
2018-12-01T03:06:43.186Z,96785.53
2018-12-01T03:09:10.416Z,96783.45
2018-12-01T03:11:37.562Z,96786.82
2018-12-01T03:14:05.005Z,96790.45
2018-12-01T03:16:32.167Z,96794.88
2018-12-01T03:18:59.357Z,96801.19
2018-12-01T03:21:26.567Z,96802.78
2018-12-01T03:23:53.754Z,96799.36
2018-12-01T03:26:21.007Z,96800.36
2018-12-01T03:28:48.219Z,96808.15
2018-12-01T03:31:15.415Z,96808.15
2018-12-01T03:33:42.615Z,96809.97
2018-12-01T03:36:09.826Z,96811.77
2018-12-01T03:38:37.018Z,96812.81
2018-12-01T03:41:04.292Z,96813.62
2018-12-01T03:43:31.440Z,96817.52
2018-12-01T03:45:58.643Z,96814.66
2018-12-01T03:48:25.837Z,96813.88
2018-12-01T03:50:53.023Z,96813.34
2018-12-01T03:53:20.174Z,96817.36
2018-12-01T03:55:47.397Z,96810.92
2018-12-01T03:58:14.603Z,96822.34
2018-12-01T04:00:41.759Z,96821.05
2018-12-01T04:03:08.949Z,96822.05
2018-12-01T04:05:36.179Z,96825.64
2018-12-01T04:08:03.375Z,96824.59
2018-12-01T04:10:30.568Z,96825.59
2018-12-01T04:12:57.794Z,96834.41
2018-12-01T04:15:25.362Z,96831.56
2018-12-01T04:17:52.614Z,96831.04
2018-12-01T04:20:19.912Z,96828.70
2018-12-01T04:22:47.115Z,96835.97
2018-12-01T04:25:14.354Z,96836.50
2018-12-01T04:27:41.566Z,96835.98
2018-12-01T04:30:13.010Z,96838.34
2018-12-01T04:32:40.214Z,96841.98
2018-12-01T04:35:08.049Z,96850.05
2018-12-01T04:37:35.191Z,96847.45
2018-12-01T04:40:02.740Z,96846.93
2018-12-01T04:42:30.043Z,96844.06
2018-12-01T04:44:57.290Z,96842.02
2018-12-01T04:47:24.474Z,96841.00
2018-12-01T04:49:51.643Z,96842.83
2018-12-01T04:52:18.775Z,96845.63
2018-12-01T04:54:45.977Z,96853.43
2018-12-01T04:57:13.166Z,96855.03
2018-12-01T04:59:40.411Z,96856.55
2018-12-01T05:02:07.631Z,96858.59
2018-12-01T05:04:34.837Z,96855.98
2018-12-01T05:07:02.040Z,96857.01
2018-12-01T05:09:29.297Z,96860.67
2018-12-01T05:11:56.446Z,96855.48
2018-12-01T05:14:23.630Z,96860.44
2018-12-01T05:16:50.851Z,96855.23
2018-12-01T05:19:18.022Z,96850.78
2018-12-01T05:21:45.239Z,96855.75
2018-12-01T05:24:12.450Z,96849.25
2018-12-01T05:26:39.655Z,96848.47
2018-12-01T05:29:06.899Z,96856.53
2018-12-01T05:31:34.110Z,96856.03
2018-12-01T05:34:01.362Z,96863.09
2018-12-01T05:36:28.676Z,96859.20
2018-12-01T05:38:55.902Z,96857.39
2018-12-01T05:41:23.169Z,96863.09
2018-12-01T05:43:50.329Z,96870.90
2018-12-01T05:46:17.499Z,96873.50
2018-12-01T05:48:44.681Z,96867.52
2018-12-01T05:51:11.844Z,96871.94
2018-12-01T05:53:39.029Z,96879.22
2018-12-01T05:56:06.247Z,96875.32
2018-12-01T05:58:33.428Z,96880.54
2018-12-01T06:01:00.586Z,96872.67
2018-12-01T06:03:27.748Z,96875.27
2018-12-01T06:05:54.898Z,96874.80
2018-12-01T06:08:22.113Z,96875.07
2018-12-01T06:10:49.284Z,96874.53
2018-12-01T06:13:16.474Z,96870.63
2018-12-01T06:15:43.694Z,96874.56
2018-12-01T06:18:10.918Z,96877.14
2018-12-01T06:20:38.230Z,96876.05
2018-12-01T06:23:05.635Z,96878.63
2018-12-01T06:25:32.867Z,96879.68
2018-12-01T06:28:00.072Z,96877.84
2018-12-01T06:30:27.246Z,96889.81
2018-12-01T06:32:54.431Z,96886.17
2018-12-01T06:35:21.684Z,96892.14
2018-12-01T06:37:48.939Z,96899.92
2018-12-01T06:40:17.090Z,96905.13
2018-12-01T06:42:44.281Z,96907.20
2018-12-01T06:45:12.963Z,96904.88
2018-12-01T06:47:40.183Z,96918.41
2018-12-01T06:50:15.347Z,96916.05
2018-12-01T06:52:42.592Z,96911.58
2018-12-01T06:55:11.483Z,96902.82
2018-12-01T06:57:38.641Z,96905.17
2018-12-01T07:00:08.939Z,96910.38
2018-12-01T07:02:36.175Z,96912.73
2018-12-01T07:05:04.259Z,96912.52
2018-12-01T07:07:31.390Z,96914.34
2018-12-01T07:09:58.569Z,96917.77
2018-12-01T07:12:25.799Z,96911.79
2018-12-01T07:14:52.967Z,96912.55
2018-12-01T07:17:20.199Z,96917.61
2018-12-01T07:19:47.383Z,96925.49
2018-12-01T07:22:14.571Z,96928.26
2018-12-01T07:24:41.741Z,96926.16
2018-12-01T07:27:08.879Z,96936.00
2018-12-01T07:29:36.086Z,96933.91
2018-12-01T07:32:03.292Z,96938.05
2018-12-01T07:34:30.494Z,96941.67
2018-12-01T07:36:57.634Z,96943.23
2018-12-01T07:39:24.795Z,96944.48
2018-12-01T07:41:51.989Z,96944.83
2018-12-01T07:44:19.216Z,96947.70
2018-12-01T07:46:46.476Z,96952.87
2018-12-01T07:49:13.698Z,96956.53
2018-12-01T07:51:40.911Z,96964.89
2018-12-01T07:54:08.170Z,96961.28
2018-12-01T07:56:35.380Z,96967.58
2018-12-01T07:59:02.619Z,96964.03
2018-12-01T08:01:29.839Z,96976.70
2018-12-01T08:03:56.991Z,96973.06
2018-12-01T08:06:24.191Z,96981.64
2018-12-01T08:08:51.429Z,96988.25
2018-12-01T08:11:18.676Z,96976.92
2018-12-01T08:13:45.864Z,96979.28
2018-12-01T08:16:13.094Z,96972.48
2018-12-01T08:18:40.332Z,96982.25
2018-12-01T08:21:07.508Z,96977.03
2018-12-01T08:23:34.746Z,96973.14
2018-12-01T08:26:01.987Z,96971.87
2018-12-01T08:28:29.207Z,96969.02
2018-12-01T08:30:56.497Z,96964.58
2018-12-01T08:33:23.654Z,96967.98
2018-12-01T08:35:50.899Z,96969.53
2018-12-01T08:38:18.087Z,96962.22
2018-12-01T08:40:45.323Z,96964.84
2018-12-01T08:43:12.533Z,96961.95
2018-12-01T08:45:39.701Z,96956.27
2018-12-01T08:48:07.602Z,96962.28
2018-12-01T08:50:35.348Z,96955.01
2018-12-01T08:53:02.568Z,96964.06
2018-12-01T08:55:29.837Z,96959.19
2018-12-01T08:57:57.032Z,96970.58
2018-12-01T09:00:27.646Z,96974.73
2018-12-01T09:02:56.311Z,96963.85
2018-12-01T09:05:23.494Z,96970.11
2018-12-01T09:07:50.739Z,96964.68
2018-12-01T09:10:18.443Z,96970.31
2018-12-01T09:12:45.681Z,96977.09
2018-12-01T09:15:12.946Z,96975.78
2018-12-01T09:17:40.531Z,96981.29
2018-12-01T09:20:09.992Z,96980.98
2018-12-01T09:22:37.368Z,96983.30
2018-12-01T09:25:06.742Z,96991.91
2018-12-01T09:27:34.029Z,96984.95
2018-12-01T09:30:01.282Z,96985.50
2018-12-01T09:32:28.506Z,96984.01
2018-12-01T09:34:55.764Z,96983.22
2018-12-01T09:37:22.956Z,96982.48
2018-12-01T09:39:50.203Z,96974.86
2018-12-01T09:42:17.447Z,96977.54
2018-12-01T09:44:44.659Z,96978.34
2018-12-01T09:47:11.882Z,96968.92
2018-12-01T09:49:39.058Z,96969.47
2018-12-01T09:52:06.354Z,96962.45
2018-12-01T09:54:33.593Z,96961.41
2018-12-01T09:57:00.813Z,96954.89
2018-12-01T09:59:28.025Z,96950.01
2018-12-01T10:01:55.247Z,96948.98
2018-12-01T10:04:22.532Z,96945.87
2018-12-01T10:06:49.826Z,96947.41
2018-12-01T10:09:17.087Z,96948.97
2018-12-01T10:11:44.473Z,96941.67
2018-12-01T10:14:11.695Z,96943.27
2018-12-01T10:16:38.984Z,96942.08
2018-12-01T10:19:06.204Z,96939.73
2018-12-01T10:21:33.469Z,96937.64
2018-12-01T10:24:00.648Z,96933.75
2018-12-01T10:26:27.832Z,96935.30
2018-12-01T10:28:55.050Z,96936.61
2018-12-01T10:31:22.335Z,96937.41
2018-12-01T10:33:50.342Z,96942.86
2018-12-01T10:36:16.888Z,96935.25
2018-12-01T10:38:44.169Z,96936.34
2018-12-01T10:41:11.344Z,96934.02
2018-12-01T10:43:38.640Z,96938.49
2018-12-01T10:46:05.863Z,96934.01
2018-12-01T10:48:33.128Z,96933.77
2018-12-01T10:51:00.323Z,96934.07
2018-12-01T10:53:27.587Z,96924.17
2018-12-01T10:55:54.856Z,96927.58
2018-12-01T10:58:22.188Z,96924.17
2018-12-01T11:00:56.519Z,96920.53
2018-12-01T11:03:32.002Z,96918.72
2018-12-01T11:18:54.367Z,96917.41
2018-12-01T11:21:21.757Z,96911.72
2018-12-01T11:23:48.961Z,96907.28
2018-12-01T11:26:16.313Z,96901.81
2018-12-01T11:28:43.621Z,96899.73
2018-12-01T11:31:10.933Z,96896.86
2018-12-01T11:33:38.822Z,96899.73
2018-12-01T11:36:06.051Z,96908.33
2018-12-01T11:38:33.388Z,96905.45
2018-12-01T11:41:00.567Z,96912.24
2018-12-01T11:43:27.805Z,96905.73
2018-12-01T11:45:54.983Z,96895.86
2018-12-01T11:48:22.291Z,96897.16
2018-12-01T11:50:49.604Z,96901.55
2018-12-01T11:53:16.991Z,96900.81
2018-12-01T11:55:44.206Z,96904.77
2018-12-01T11:58:11.405Z,96894.56
2018-12-01T12:00:38.668Z,96901.08
2018-12-01T12:03:05.871Z,96899.80
2018-12-01T12:05:33.084Z,96900.82
2018-12-01T12:08:22.864Z,96902.12
2018-12-01T12:10:50.419Z,96896.68
2018-12-01T12:13:18.070Z,96892.25
2018-12-01T12:15:45.272Z,96893.05
2018-12-01T12:18:12.837Z,96895.67
2018-12-01T12:20:40.079Z,96899.31
2018-12-01T12:23:07.687Z,96892.03
2018-12-01T12:25:35.060Z,96888.66
2018-12-01T12:28:02.273Z,96889.97
2018-12-01T12:30:29.510Z,96888.14
2018-12-01T12:32:56.786Z,96877.70
2018-12-01T12:35:24.052Z,96872.48
2018-12-01T12:37:51.334Z,96875.09
2018-12-01T12:40:19.993Z,96876.66
2018-12-01T12:42:47.356Z,96876.14
2018-12-01T12:45:14.765Z,96881.36
2018-12-01T12:47:42.015Z,96879.27
2018-12-01T12:50:11.387Z,96893.11
2018-12-01T12:52:38.549Z,96889.44
2018-12-01T12:55:07.957Z,96887.34
2018-12-01T12:57:35.198Z,96881.08
2018-12-01T13:00:02.484Z,96879.52
2018-12-01T13:02:29.664Z,96884.47
2018-12-01T13:04:56.920Z,96884.22
2018-12-01T13:07:24.072Z,96882.39
2018-12-01T13:09:51.234Z,96880.31
2018-12-01T13:12:18.443Z,96885.53
2018-12-01T13:14:45.641Z,96876.40
2018-12-01T13:17:14.860Z,96873.01
2018-12-01T13:19:42.104Z,96875.61
2018-12-01T13:22:09.352Z,96870.89
2018-12-01T13:24:36.588Z,96866.98
2018-12-01T13:27:03.837Z,96859.16
2018-12-01T13:29:31.191Z,96758.71
2018-12-01T13:31:58.900Z,96837.26
2018-12-01T13:34:26.098Z,96839.86
2018-12-01T13:36:53.375Z,96844.28
2018-12-01T13:39:20.625Z,96837.77
2018-12-01T13:41:48.768Z,96837.26
2018-12-01T13:44:15.988Z,96829.40
2018-12-01T13:46:43.243Z,96827.84
2018-12-01T13:49:10.453Z,96822.88
2018-12-01T13:51:37.672Z,96824.70
2018-12-01T13:54:05.037Z,96835.92
2018-12-01T13:56:32.271Z,96839.31
2018-12-01T13:58:59.559Z,96834.09
2018-12-01T14:01:26.763Z,96833.82
2018-12-01T14:03:53.972Z,96832.52
2018-12-01T14:06:21.223Z,96829.66
2018-12-01T14:08:49.336Z,96839.30
2018-12-01T14:11:16.605Z,96837.24
2018-12-01T14:13:43.835Z,96836.47
2018-12-01T14:16:11.098Z,96841.14
2018-12-01T14:18:38.367Z,96838.80
2018-12-01T14:21:05.576Z,96845.59
2018-12-01T14:23:32.807Z,96847.42
2018-12-01T14:26:00.214Z,96850.27
2018-12-01T14:28:27.426Z,96852.89
2018-12-01T14:30:54.595Z,96854.98
2018-12-01T14:33:21.844Z,96846.63
2018-12-01T14:35:49.023Z,96859.41
2018-12-01T14:38:17.614Z,96860.72
2018-12-01T14:40:48.084Z,96861.78
2018-12-01T14:43:17.731Z,96863.09
2018-12-01T14:45:46.235Z,96860.70
2018-12-01T14:48:13.417Z,96859.67
2018-12-01T14:50:40.727Z,96861.76
2018-12-01T14:53:09.378Z,96856.78
2018-12-01T14:55:36.558Z,96857.56
2018-12-01T14:58:03.842Z,96862.28
2018-12-01T15:00:31.128Z,96862.78
2018-12-01T15:02:58.573Z,96862.53
2018-12-01T15:05:26.075Z,96868.77
2018-12-01T15:07:53.276Z,96871.91
2018-12-01T15:10:22.722Z,96865.35
2018-12-01T15:12:49.978Z,96860.16
2018-12-01T15:15:24.939Z,96859.61
2018-12-01T15:17:52.155Z,96856.48
2018-12-01T15:20:20.187Z,96846.33
2018-12-01T15:22:49.334Z,96850.27
2018-12-01T15:25:17.727Z,96848.44
2018-12-01T15:27:44.928Z,96849.74
2018-12-01T15:30:19.787Z,96850.01
2018-12-01T15:33:18.612Z,96853.14
2018-12-01T15:35:46.258Z,96845.31
2018-12-01T15:38:14.352Z,96850.29
2018-12-01T15:40:42.530Z,96855.52
2018-12-01T15:43:10.066Z,96858.34
2018-12-01T15:45:37.457Z,96857.83
2018-12-01T15:48:05.214Z,96867.50
2018-12-01T15:50:32.467Z,96861.76
2018-12-01T15:52:59.998Z,96864.64
2018-12-01T15:55:27.217Z,96857.08
2018-12-01T15:57:54.493Z,96859.69
2018-12-01T16:00:23.751Z,96861.50
2018-12-01T16:02:50.951Z,96797.59
2018-12-01T16:05:20.075Z,96850.02
2018-12-01T16:07:48.091Z,96846.37
2018-12-01T16:10:16.296Z,96850.03
2018-12-01T16:12:44.374Z,96841.41
2018-12-01T16:15:13.307Z,96848.19
2018-12-01T16:17:40.570Z,96854.22
2018-12-01T16:20:09.768Z,96853.96
2018-12-01T16:22:37.007Z,96859.70
2018-12-01T16:25:05.316Z,96863.86
2018-12-01T16:27:32.563Z,96862.84
2018-12-01T16:30:00.122Z,96861.00
2018-12-01T16:32:28.618Z,96862.30
2018-12-01T16:34:55.919Z,96862.83
2018-12-01T16:37:23.140Z,96853.68
2018-12-01T16:39:50.363Z,96853.94
2018-12-01T16:42:17.555Z,96850.54
2018-12-01T16:44:44.762Z,96847.70
2018-12-01T16:47:12.073Z,96845.59
2018-12-01T16:49:39.334Z,96849.78
2018-12-01T16:52:06.643Z,96846.66
2018-12-01T16:54:33.983Z,96854.98
2018-12-01T16:57:01.263Z,96853.69
2018-12-01T16:59:28.427Z,96842.21
2018-12-01T17:01:55.662Z,96846.90
2018-12-01T17:04:22.894Z,96846.37
2018-12-01T17:06:50.145Z,96841.94
2018-12-01T17:09:17.362Z,96848.72
2018-12-01T17:11:44.535Z,96849.27
2018-12-01T17:14:11.703Z,96847.42
2018-12-01T17:16:38.919Z,96840.89
2018-12-01T17:19:06.183Z,96829.16
2018-12-01T17:21:33.508Z,96825.77
2018-12-01T17:24:00.738Z,96820.01
2018-12-01T17:26:27.930Z,96821.84
2018-12-01T17:28:55.167Z,96821.06
2018-12-01T17:31:22.394Z,96822.62
2018-12-01T17:33:49.607Z,96819.23
2018-12-01T17:36:16.890Z,96823.15
2018-12-01T17:38:44.108Z,96813.51
2018-12-01T17:41:14.667Z,96813.24
2018-12-01T17:43:45.566Z,96810.62
2018-12-01T17:46:12.792Z,96812.99
2018-12-01T17:48:40.027Z,96811.92
2018-12-01T17:51:07.234Z,96813.72
2018-12-01T17:53:34.430Z,96804.33
2018-12-01T17:56:01.714Z,96806.13
2018-12-01T17:58:28.906Z,96803.77
2018-12-01T18:00:56.082Z,96811.86
2018-12-01T18:03:23.266Z,96810.04
2018-12-01T18:05:50.602Z,96811.09
2018-12-01T18:08:19.976Z,96807.95
2018-12-01T18:10:48.510Z,96802.70
2018-12-01T18:13:15.776Z,96804.02
2018-12-01T18:15:43.031Z,96803.48
2018-12-01T18:18:10.323Z,96807.93
2018-12-01T18:20:37.572Z,96806.13
2018-12-01T18:23:06.551Z,96801.96
2018-12-01T18:25:40.183Z,96794.61
2018-12-01T18:28:08.486Z,96796.95
2018-12-01T18:30:37.134Z,96800.08
2018-12-01T18:33:21.917Z,96801.64
2018-12-01T18:35:49.159Z,96799.05
2018-12-01T18:38:16.396Z,96797.26
2018-12-01T18:40:43.632Z,96800.87
2018-12-01T18:43:10.902Z,96794.37
2018-12-01T18:45:40.320Z,96783.63
2018-12-01T18:48:07.573Z,96781.27
2018-12-01T18:50:34.774Z,96778.13
2018-12-01T18:53:03.673Z,96780.76
2018-12-01T18:55:33.153Z,96778.93
2018-12-01T18:58:00.428Z,96778.93
2018-12-01T19:00:29.686Z,96772.13
2018-12-01T19:02:56.942Z,96762.45
2018-12-01T19:05:24.244Z,96760.13
2018-12-01T19:07:51.441Z,96763.26
2018-12-01T19:10:19.108Z,96763.52
2018-12-01T19:12:46.550Z,96761.68
2018-12-01T19:15:15.121Z,96755.42
2018-12-01T19:17:42.956Z,96752.80
2018-12-01T19:20:12.355Z,96749.94
2018-12-01T19:22:39.637Z,96743.94
2018-12-01T19:25:08.894Z,96742.09
2018-12-01T19:27:36.523Z,96743.39
2018-12-01T19:30:07.496Z,96742.61
2018-12-01T19:32:34.720Z,96737.39
2018-12-01T19:35:02.024Z,96735.51
2018-12-01T19:37:29.261Z,96734.47
2018-12-01T19:39:56.495Z,96737.10
2018-12-01T19:42:23.824Z,96735.02
2018-12-01T19:44:51.060Z,96724.55
2018-12-01T19:47:18.281Z,96724.84
2018-12-01T19:49:45.513Z,96720.62
2018-12-01T19:52:12.895Z,96717.77
2018-12-01T19:54:40.293Z,96719.09
2018-12-01T19:57:07.481Z,96722.50
2018-12-01T19:59:34.726Z,96717.80
2018-12-01T20:02:02.027Z,96710.47
2018-12-01T20:04:29.272Z,96712.01
2018-12-01T20:06:56.540Z,96713.86
2018-12-01T20:09:23.775Z,96713.28
2018-12-01T20:11:51.158Z,96717.72
2018-12-01T20:14:18.404Z,96707.27
2018-12-01T20:16:49.258Z,96715.66
2018-12-01T20:19:16.509Z,96713.82
2018-12-01T20:21:43.727Z,96719.57
2018-12-01T20:24:11.874Z,96730.30
2018-12-01T20:26:40.482Z,96731.33
2018-12-01T20:29:07.613Z,96722.17
2018-12-01T20:31:34.873Z,96722.66
2018-12-01T20:34:02.741Z,96723.96
2018-12-01T20:36:33.267Z,96724.25
2018-12-01T20:39:14.275Z,96720.57
2018-12-01T20:41:41.561Z,96719.03
2018-12-01T20:44:08.833Z,96715.38
2018-12-01T20:46:36.447Z,96712.53
2018-12-01T20:49:03.746Z,96703.35
2018-12-01T20:51:31.013Z,96704.41
2018-12-01T20:54:06.732Z,96701.81
2018-12-01T20:56:35.647Z,96691.39
2018-12-01T20:59:02.903Z,96696.36
2018-12-01T21:01:30.114Z,96693.49
2018-12-01T21:03:57.368Z,96689.52
2018-12-01T21:06:24.552Z,96694.25
2018-12-01T21:08:51.751Z,96690.61
2018-12-01T21:11:19.025Z,96683.02
2018-12-01T21:13:46.243Z,96679.86
2018-12-01T21:16:13.447Z,96680.39
2018-12-01T21:18:40.715Z,96677.77
2018-12-01T21:21:07.971Z,96671.52
2018-12-01T21:23:35.274Z,96662.40
2018-12-01T21:26:02.573Z,96663.47
2018-12-01T21:28:29.807Z,96658.19
2018-12-01T21:30:57.079Z,96658.43
2018-12-01T21:33:27.363Z,96648.79
2018-12-01T21:35:54.578Z,96641.70
2018-12-01T21:38:21.864Z,96636.75
2018-12-01T21:40:49.075Z,96638.81
2018-12-01T21:43:16.307Z,96632.57
2018-12-01T21:45:43.612Z,96633.34
2018-12-01T21:48:12.243Z,96629.47
2018-12-01T21:50:40.318Z,96632.37
2018-12-01T21:53:10.827Z,96628.92
2018-12-01T21:55:38.092Z,96630.25
2018-12-01T21:58:06.220Z,96623.70
2018-12-01T22:00:33.455Z,96612.74
2018-12-01T22:03:05.472Z,96613.82
2018-12-01T22:05:37.971Z,96613.80
2018-12-01T22:08:06.676Z,96608.28
2018-12-01T22:10:34.048Z,96607.52
2018-12-01T22:13:01.367Z,96611.69
2018-12-01T22:15:28.753Z,96616.35
2018-12-01T22:17:56.091Z,96606.98
2018-12-01T22:20:23.337Z,96622.13
2018-12-01T22:22:51.778Z,96609.86
2018-12-01T22:25:19.047Z,96615.84
2018-12-01T22:27:46.413Z,96612.70
2018-12-01T22:30:16.694Z,96610.91
2018-12-01T22:32:45.331Z,96602.57
2018-12-01T22:35:15.036Z,96607.24
2018-12-01T22:37:42.364Z,96604.91
2018-12-01T22:40:14.990Z,96602.55
2018-12-01T22:42:42.318Z,96598.89
2018-12-01T22:45:09.597Z,96596.55
2018-12-01T22:47:37.374Z,96598.61
2018-12-01T22:50:10.777Z,96590.00
2018-12-01T22:52:38.066Z,96587.67
2018-12-01T22:55:09.436Z,96583.99
2018-12-01T22:57:36.904Z,96574.87
2018-12-01T23:00:10.448Z,96572.03
2018-12-01T23:02:37.699Z,96569.98
2018-12-01T23:05:05.224Z,96573.86
2018-12-01T23:07:32.448Z,96580.64
2018-12-01T23:09:59.622Z,96583.00
2018-12-01T23:12:26.843Z,96573.86
2018-12-01T23:14:54.038Z,96569.94
2018-12-01T23:17:21.312Z,96565.50
2018-12-01T23:19:48.533Z,96565.77
2018-12-01T23:22:15.720Z,96562.41
2018-12-01T23:24:42.927Z,96568.92
2018-12-01T23:27:10.077Z,96568.36
2018-12-01T23:29:37.300Z,96557.91
2018-12-01T23:32:05.320Z,96556.35
2018-12-01T23:34:32.591Z,96552.71
2018-12-01T23:36:59.876Z,96547.95
2018-12-01T23:39:27.083Z,96542.47
2018-12-01T23:41:54.300Z,96551.61
2018-12-01T23:44:28.033Z,96535.45
2018-12-01T23:46:55.379Z,96535.75
2018-12-01T23:49:22.594Z,96525.58
2018-12-01T23:51:49.795Z,96513.28
2018-12-01T23:54:17.026Z,96524.00
2018-12-01T23:56:44.257Z,96519.03
2018-12-01T23:59:11.538Z,96515.11
